Time;durP1;ratioP1;P1;durP2;ratioP2;P2;SDS_P1;SDS_P2;PMS_P1;PMS_P2;Temp;Humidity;BMP_temperature;BMP_pressure;BME280_temperature;BME280_humidity;BME280_pressure;Samples;Min_cycle;Max_cycle;Signal;HPM_P1;HPM_P2
2023/08/13 00:01:23;;;;;;;8.30;6.60;;;;;;;14.65;100.00;98165.42;106400;1280;27857;-77
2023/08/13 00:03:51;;;;;;;8.30;6.10;;;;;;;14.64;100.00;98164.68;106426;1280;22628;-77
2023/08/13 00:06:20;;;;;;;8.80;7.00;;;;;;;14.63;100.00;98164.54;106386;1280;22543;-77
2023/08/13 00:08:48;;;;;;;7.20;5.70;;;;;;;14.61;100.00;98170.73;106424;1280;23902;-77
2023/08/13 00:11:16;;;;;;;10.80;5.70;;;;;;;14.63;100.00;98167.02;106431;1280;24200;-77
2023/08/13 00:13:44;;;;;;;9.60;6.70;;;;;;;14.63;100.00;98167.33;106460;1280;25295;-77
2023/08/13 00:16:12;;;;;;;7.20;5.60;;;;;;;14.64;100.00;98165.75;106703;1280;22636;-77
2023/08/13 00:18:40;;;;;;;10.10;5.90;;;;;;;14.64;100.00;98162.41;106726;1280;24385;-77
2023/08/13 00:21:08;;;;;;;7.20;5.70;;;;;;;14.61;100.00;98164.66;106703;1279;22822;-77
2023/08/13 00:23:37;;;;;;;7.80;6.00;;;;;;;14.53;100.00;98165.10;106466;1280;22527;-77
2023/08/13 00:26:05;;;;;;;6.40;5.50;;;;;;;14.49;100.00;98158.85;106731;1279;24252;-77
2023/08/13 00:28:33;;;;;;;8.60;5.60;;;;;;;14.47;100.00;98161.15;106477;1280;181991;-77
2023/08/13 00:31:01;;;;;;;8.10;6.40;;;;;;;14.45;100.00;98164.41;106592;1280;22629;-77
2023/08/13 00:33:29;;;;;;;11.50;6.60;;;;;;;14.46;100.00;98164.59;106703;1279;22538;-77
2023/08/13 00:35:57;;;;;;;8.80;6.40;;;;;;;14.44;100.00;98169.54;106739;1279;25389;-77
2023/08/13 00:38:25;;;;;;;8.40;6.80;;;;;;;14.42;100.00;98178.60;106470;1279;25332;-77
2023/08/13 00:40:53;;;;;;;11.10;6.80;;;;;;;14.41;100.00;98183.60;106469;1279;25409;-78
2023/08/13 00:43:22;;;;;;;9.20;6.30;;;;;;;14.40;100.00;98177.19;106611;1279;22747;-78
2023/08/13 00:45:50;;;;;;;10.00;6.10;;;;;;;14.41;100.00;98182.68;106758;1280;23944;-77
2023/08/13 00:48:18;;;;;;;6.80;5.90;;;;;;;14.43;100.00;98183.89;106741;1280;22759;-77
2023/08/13 00:50:47;;;;;;;7.30;6.10;;;;;;;14.41;100.00;98185.84;106558;1280;24203;-78
2023/08/13 00:53:16;;;;;;;10.30;6.20;;;;;;;14.41;100.00;98187.15;106691;1280;22547;-77
2023/08/13 00:55:44;;;;;;;7.30;6.40;;;;;;;14.41;100.00;98186.16;106600;1279;25401;-77
2023/08/13 00:58:12;;;;;;;11.00;7.00;;;;;;;14.37;100.00;98190.39;106433;1280;22518;-76
2023/08/13 01:00:40;;;;;;;11.10;8.10;;;;;;;14.36;100.00;98188.70;106452;1280;24226;-77
2023/08/13 01:03:08;;;;;;;11.00;7.70;;;;;;;14.36;100.00;98185.28;106428;1279;24250;-77
2023/08/13 01:05:56;;;;;;;10.20;7.10;;;;;;;14.32;100.00;98184.09;106483;1280;23891;-76
2023/08/13 01:08:48;;;;;;;10.30;8.00;;;;;;;14.30;100.00;98177.02;106462;1279;24289;-77
2023/08/13 01:11:41;;;;;;;11.30;9.30;;;;;;;14.30;100.00;98179.67;106412;1280;24351;-77
2023/08/13 01:14:21;;;;;;;12.30;9.50;;;;;;;14.28;100.00;98178.89;106469;1280;23298;-77
2023/08/13 01:16:52;;;;;;;10.40;9.30;;;;;;;14.31;100.00;98184.44;106460;1278;23910;-77
2023/08/13 01:19:20;;;;;;;17.00;10.20;;;;;;;14.32;100.00;98186.27;106422;1273;22534;-77
2023/08/13 01:21:48;;;;;;;11.90;9.40;;;;;;;14.35;100.00;98189.63;106361;1280;24194;-77
2023/08/13 01:24:16;;;;;;;12.00;10.20;;;;;;;14.37;100.00;98193.31;106432;1279;22602;-77
2023/08/13 01:26:54;;;;;;;10.80;9.60;;;;;;;14.39;100.00;98198.36;106403;1279;22587;-77
2023/08/13 01:29:54;;;;;;;12.60;9.60;;;;;;;14.47;100.00;98204.21;106351;1279;22559;-77
2023/08/13 01:32:33;;;;;;;10.30;9.00;;;;;;;14.51;100.00;98202.75;106208;1280;23913;-77
2023/08/13 01:35:02;;;;;;;12.70;9.70;;;;;;;14.55;100.00;98205.86;106460;1279;22561;-77
2023/08/13 01:37:31;;;;;;;12.20;8.90;;;;;;;14.58;100.00;98204.09;106444;1280;22785;-77
2023/08/13 01:39:59;;;;;;;9.00;7.90;;;;;;;14.62;100.00;98197.45;106390;1279;22999;-77
2023/08/13 01:42:27;;;;;;;11.30;8.70;;;;;;;14.66;100.00;98203.64;106397;1279;22527;-77
2023/08/13 01:44:55;;;;;;;12.70;9.80;;;;;;;14.73;100.00;98197.54;106378;1280;22647;-77
2023/08/13 01:47:23;;;;;;;9.90;8.90;;;;;;;14.83;100.00;98200.61;106410;1279;22583;-77
2023/08/13 01:49:51;;;;;;;10.20;9.10;;;;;;;14.88;100.00;98197.08;106400;1279;22528;-77
2023/08/13 01:52:19;;;;;;;9.90;8.90;;;;;;;14.95;100.00;98192.34;106385;1279;22636;-77
2023/08/13 01:54:47;;;;;;;11.90;8.90;;;;;;;15.01;100.00;98190.10;106380;1258;24317;-77
2023/08/13 01:57:15;;;;;;;10.60;9.00;;;;;;;15.06;100.00;98187.84;106356;1280;25425;-77
2023/08/13 01:59:43;;;;;;;12.30;9.40;;;;;;;15.10;100.00;98191.27;106376;1280;24292;-78
2023/08/13 02:02:11;;;;;;;11.40;9.10;;;;;;;15.10;100.00;98193.14;106408;1280;22573;-76
2023/08/13 02:04:40;;;;;;;11.60;9.40;;;;;;;15.12;100.00;98191.61;106354;1280;24249;-76
2023/08/13 02:07:08;;;;;;;10.10;8.80;;;;;;;15.17;100.00;98185.75;106334;1280;22872;-76
2023/08/13 02:09:36;;;;;;;11.50;8.40;;;;;;;15.25;100.00;98187.91;106391;1279;25373;-77
2023/08/13 02:12:05;;;;;;;14.80;9.00;;;;;;;15.35;100.00;98187.86;106363;1280;25432;-78
2023/08/13 02:14:33;;;;;;;11.70;8.60;;;;;;;15.45;100.00;98186.55;106545;1280;24280;-77
2023/08/13 02:17:01;;;;;;;10.50;9.10;;;;;;;15.53;100.00;98182.00;106403;1272;22530;-76
2023/08/13 02:19:29;;;;;;;9.80;8.50;;;;;;;15.50;100.00;98184.09;106375;1280;24385;-76
2023/08/13 02:21:57;;;;;;;13.70;9.20;;;;;;;15.43;100.00;98184.20;106375;1280;24385;-76
2023/08/13 02:24:25;;;;;;;10.80;8.40;;;;;;;15.38;100.00;98182.73;106309;1279;24215;-77
2023/08/13 02:26:54;;;;;;;11.00;8.80;;;;;;;15.35;100.00;98184.23;106360;1279;24455;-76
2023/08/13 02:29:22;;;;;;;9.50;7.70;;;;;;;15.36;100.00;98187.35;106317;1280;22747;-76
2023/08/13 02:31:50;;;;;;;11.20;8.30;;;;;;;15.35;100.00;98184.38;106355;1279;22768;-76
2023/08/13 02:34:18;;;;;;;10.60;8.00;;;;;;;15.37;100.00;98186.23;106391;1279;24350;-76
2023/08/13 02:36:46;;;;;;;12.40;8.10;;;;;;;15.33;100.00;98182.39;106321;1279;22860;-76
2023/08/13 02:39:14;;;;;;;8.60;7.70;;;;;;;15.30;100.00;98184.45;106374;1280;23171;-76
2023/08/13 02:41:42;;;;;;;10.70;8.20;;;;;;;15.26;100.00;98188.15;106346;1279;22639;-77
2023/08/13 02:44:10;;;;;;;8.10;7.20;;;;;;;15.22;100.00;98191.43;106377;1279;22570;-77
2023/08/13 02:46:38;;;;;;;9.30;8.40;;;;;;;15.16;100.00;98195.64;106416;1279;22982;-76
2023/08/13 02:49:06;;;;;;;9.20;8.00;;;;;;;15.13;100.00;98202.04;106313;1279;22653;-76
2023/08/13 02:51:34;;;;;;;9.40;8.30;;;;;;;15.08;100.00;98200.64;106382;1279;24059;-76
2023/08/13 02:54:03;;;;;;;9.40;7.40;;;;;;;15.04;100.00;98199.55;106379;1279;23166;-77
2023/08/13 02:56:31;;;;;;;9.40;7.60;;;;;;;15.07;100.00;98203.55;106337;1279;25335;-76
2023/08/13 02:58:59;;;;;;;10.20;8.30;;;;;;;14.98;100.00;98206.27;106358;1279;22860;-77
2023/08/13 03:01:27;;;;;;;8.60;7.60;;;;;;;14.94;100.00;98206.17;106366;1280;22644;-77
2023/08/13 03:03:55;;;;;;;10.60;7.90;;;;;;;14.88;100.00;98206.30;106340;1279;25681;-77
2023/08/13 03:06:25;;;;;;;8.70;7.80;;;;;;;14.83;100.00;98202.95;106376;1279;25313;-77
2023/08/13 03:08:53;;;;;;;10.70;7.80;;;;;;;14.83;100.00;98197.45;106418;1279;22637;-76
2023/08/13 03:11:21;;;;;;;11.40;7.30;;;;;;;14.83;100.00;98196.27;106447;1280;22538;-77
2023/08/13 03:13:50;;;;;;;8.00;7.20;;;;;;;14.80;100.00;98198.16;106445;1280;22956;-76
2023/08/13 03:16:20;;;;;;;9.30;8.20;;;;;;;14.72;100.00;98200.00;106327;1280;24321;-76
2023/08/13 03:18:48;;;;;;;9.50;8.00;;;;;;;14.66;100.00;98199.55;106373;1279;24046;-76
2023/08/13 03:21:18;;;;;;;9.90;8.90;;;;;;;14.63;100.00;98196.48;106389;1279;23947;-76
2023/08/13 03:23:46;;;;;;;10.60;7.40;;;;;;;14.61;100.00;98200.15;106392;1279;22591;-76
2023/08/13 03:26:14;;;;;;;9.00;8.20;;;;;;;14.57;100.00;98199.98;106394;1279;22723;-76
2023/08/13 03:28:43;;;;;;;7.70;6.60;;;;;;;14.49;100.00;98200.02;106470;1279;24337;-76
2023/08/13 03:31:14;;;;;;;7.90;7.10;;;;;;;14.43;100.00;98198.69;106385;1280;24375;-76
2023/08/13 03:33:45;;;;;;;11.00;7.90;;;;;;;14.36;100.00;98199.29;106364;1279;25584;-76
2023/08/13 03:36:13;;;;;;;9.70;7.40;;;;;;;14.30;100.00;98200.72;106421;1279;22532;-76
2023/08/13 03:38:41;;;;;;;11.10;8.30;;;;;;;14.24;100.00;98199.52;106403;1280;25532;-76
2023/08/13 03:41:09;;;;;;;8.20;7.40;;;;;;;14.19;100.00;98197.40;106366;1268;22939;-76
2023/08/13 03:43:37;;;;;;;9.30;7.80;;;;;;;14.12;100.00;98194.28;106347;1280;22520;-76
2023/08/13 03:46:05;;;;;;;8.50;7.60;;;;;;;14.09;100.00;98192.39;106353;1280;25387;-76
2023/08/13 03:48:34;;;;;;;9.90;7.10;;;;;;;14.08;100.00;98188.84;106392;1279;22580;-76
2023/08/13 03:51:05;;;;;;;8.80;7.90;;;;;;;14.06;100.00;98192.00;106401;1279;24487;-77
2023/08/13 03:53:34;;;;;;;9.80;7.80;;;;;;;14.06;100.00;98196.98;106376;1280;22547;-76
2023/08/13 03:56:07;;;;;;;9.50;7.80;;;;;;;14.05;100.00;98202.27;106389;1279;24421;-76
2023/08/13 03:58:35;;;;;;;11.70;8.60;;;;;;;14.05;100.00;98201.31;106349;1279;22527;-77
2023/08/13 04:01:06;;;;;;;10.10;7.20;;;;;;;14.09;100.00;98196.48;106413;1279;22637;-76
2023/08/13 04:03:35;;;;;;;9.50;8.40;;;;;;;14.15;100.00;98195.21;106455;1279;22533;-76
2023/08/13 04:06:03;;;;;;;12.00;7.90;;;;;;;14.19;100.00;98197.40;106342;1280;25389;-76
2023/08/13 04:08:34;;;;;;;8.30;7.50;;;;;;;14.16;100.00;98199.90;106398;1279;22555;-77
2023/08/13 04:11:02;;;;;;;8.80;7.50;;;;;;;14.18;100.00;98200.84;106331;1279;22531;-76
2023/08/13 04:13:30;;;;;;;10.40;7.70;;;;;;;14.20;100.00;98196.53;106321;1279;22672;-77
2023/08/13 04:15:58;;;;;;;11.10;9.10;;;;;;;14.23;100.00;98193.67;106391;1279;22635;-76
2023/08/13 04:18:27;;;;;;;9.40;7.30;;;;;;;14.29;100.00;98191.48;106372;1279;22648;-76
2023/08/13 04:20:55;;;;;;;8.30;7.20;;;;;;;14.32;100.00;98185.34;106349;1279;22527;-76
2023/08/13 04:23:23;;;;;;;7.90;7.00;;;;;;;14.35;100.00;98183.69;106362;1279;25393;-76
2023/08/13 04:25:52;;;;;;;10.40;7.30;;;;;;;14.36;100.00;98181.75;106459;1279;22792;-78
2023/08/13 04:28:20;;;;;;;9.80;7.30;;;;;;;14.40;100.00;98181.59;106416;1279;22535;-77
2023/08/13 04:30:48;;;;;;;9.80;7.50;;;;;;;14.46;100.00;98182.81;106428;1279;22552;-77
2023/08/13 04:33:16;;;;;;;9.40;7.00;;;;;;;14.55;100.00;98183.93;106422;1279;24206;-77
2023/08/13 04:35:54;;;;;;;9.50;7.60;;;;;;;14.63;100.00;98190.68;106351;1280;22639;-77
2023/08/13 04:38:22;;;;;;;9.50;8.60;;;;;;;14.72;100.00;98197.04;106434;1280;22528;-77
2023/08/13 04:40:51;;;;;;;9.90;7.50;;;;;;;14.83;100.00;98200.32;106424;1279;22662;-77
2023/08/13 04:43:19;;;;;;;16.80;7.40;;;;;;;14.98;100.00;98199.34;106387;1279;22527;-77
2023/08/13 04:45:48;;;;;;;9.90;7.00;;;;;;;15.13;100.00;98205.30;106441;1279;22544;-77
2023/08/13 04:48:18;;;;;;;10.50;7.40;;;;;;;15.29;100.00;98203.48;106338;1279;25422;-77
2023/08/13 04:50:47;;;;;;;7.50;6.70;;;;;;;15.46;100.00;98207.09;106438;1279;23041;-77
2023/08/13 04:53:15;;;;;;;9.60;6.90;;;;;;;15.63;100.00;98212.09;106364;1279;22950;-77
2023/08/13 04:55:43;;;;;;;8.30;7.10;;;;;;;15.82;100.00;98212.19;106356;1279;22527;-77
2023/08/13 04:58:11;;;;;;;8.00;6.70;;;;;;;16.03;100.00;98208.69;106384;1280;22530;-77
2023/08/13 05:00:39;;;;;;;8.00;7.20;;;;;;;16.25;100.00;98209.52;106414;1279;22598;-77
2023/08/13 05:03:07;;;;;;;10.80;7.00;;;;;;;16.48;100.00;98216.30;106402;1279;22668;-77
2023/08/13 05:05:35;;;;;;;9.00;7.10;;;;;;;16.67;100.00;98217.73;106329;1279;24302;-77
2023/08/13 05:08:04;;;;;;;8.50;7.00;;;;;;;16.87;100.00;98213.68;106436;1279;22529;-77
2023/08/13 05:10:33;;;;;;;7.60;6.80;;;;;;;17.09;100.00;98213.18;106396;1279;22647;-77
2023/08/13 05:13:03;;;;;;;7.70;6.70;;;;;;;17.31;100.00;98212.79;106442;1279;25231;-77
2023/08/13 05:15:31;;;;;;;10.50;6.30;;;;;;;17.53;100.00;98212.00;106370;1279;22775;-77
2023/08/13 05:18:01;;;;;;;8.70;5.90;;;;;;;17.77;100.00;98210.34;106456;1279;22530;-77
2023/08/13 05:20:29;;;;;;;8.20;6.40;;;;;;;18.03;100.00;98210.66;106697;1279;22643;-78
2023/08/13 05:22:58;;;;;;;8.00;6.00;;;;;;;18.25;100.00;98209.34;106646;1280;25529;-77
2023/08/13 05:25:28;;;;;;;9.10;6.60;;;;;;;18.46;100.00;98204.91;106722;1280;22563;-78
2023/08/13 05:27:57;;;;;;;6.60;5.60;;;;;;;18.61;100.00;98204.69;106711;1279;25389;-78
2023/08/13 05:30:25;;;;;;;7.30;5.90;;;;;;;18.74;100.00;98207.48;106685;1279;22619;-77
2023/08/13 05:32:53;;;;;;;7.90;6.20;;;;;;;18.89;100.00;98210.05;106660;1279;22568;-77
2023/08/13 05:35:23;;;;;;;9.60;6.10;;;;;;;19.09;100.00;98207.57;106752;1279;25463;-77
2023/08/13 05:37:51;;;;;;;6.60;5.70;;;;;;;19.28;100.00;98211.55;106375;1279;22538;-77
2023/08/13 05:40:19;;;;;;;7.80;5.40;;;;;;;19.48;100.00;98210.84;106596;1279;24413;-77
2023/08/13 05:42:48;;;;;;;9.40;6.00;;;;;;;19.67;100.00;98210.23;106722;1279;22543;-77
2023/08/13 05:45:17;;;;;;;8.40;5.90;;;;;;;19.85;100.00;98214.94;106725;1279;25374;-77
2023/08/13 05:47:45;;;;;;;6.40;5.20;;;;;;;20.05;100.00;98215.59;106672;1279;25514;-77
2023/08/13 05:50:13;;;;;;;7.40;5.20;;;;;;;20.23;100.00;98217.98;106374;1279;24349;-77
2023/08/13 05:52:41;;;;;;;7.50;5.40;;;;;;;20.42;100.00;98212.48;106377;1279;22532;-77
2023/08/13 05:55:10;;;;;;;7.60;5.20;;;;;;;20.55;100.00;98213.36;106452;1279;22655;-77
2023/08/13 05:57:38;;;;;;;6.10;5.30;;;;;;;20.68;100.00;98213.64;106417;1279;22537;-78
2023/08/13 06:00:09;;;;;;;7.60;5.20;;;;;;;20.82;100.00;98215.19;106604;1279;22530;-78
2023/08/13 06:02:42;;;;;;;7.90;5.00;;;;;;;20.94;100.00;98218.88;106722;1279;24973;-78
2023/08/13 06:05:11;;;;;;;7.10;5.20;;;;;;;21.04;100.00;98217.53;106690;1279;24343;-76
2023/08/13 06:07:39;;;;;;;6.50;4.90;;;;;;;21.16;100.00;98218.65;106693;1279;22610;-78
2023/08/13 06:10:08;;;;;;;7.10;5.20;;;;;;;21.28;100.00;98222.63;106706;1279;22635;-78
2023/08/13 06:12:36;;;;;;;8.60;4.90;;;;;;;21.33;100.00;98221.73;106730;1279;24858;-77
2023/08/13 06:15:05;;;;;;;7.40;5.30;;;;;;;21.39;100.00;98218.56;106442;1279;22672;-77
2023/08/13 06:17:32;;;;;;;7.70;4.80;;;;;;;21.50;100.00;98221.37;106444;1279;22646;-77
2023/08/13 06:20:01;;;;;;;7.70;4.30;;;;;;;21.58;99.97;98226.64;106313;1279;24049;-77
2023/08/13 06:22:29;;;;;;;7.10;5.20;;;;;;;21.63;99.96;98229.66;106401;1279;22669;-77
2023/08/13 06:24:57;;;;;;;6.10;4.90;;;;;;;21.67;99.76;98221.67;106438;1279;23149;-77
2023/08/13 06:27:25;;;;;;;7.20;5.10;;;;;;;21.74;99.42;98226.34;106432;1279;25373;-77
2023/08/13 06:29:53;;;;;;;8.20;5.10;;;;;;;21.80;98.58;98229.27;106420;1279;22642;-77
2023/08/13 06:32:37;;;;;;;8.50;5.30;;;;;;;21.84;96.47;98232.16;106462;1279;24342;-77
2023/08/13 06:35:05;;;;;;;7.10;4.80;;;;;;;21.85;96.60;98229.12;106658;1279;22603;-78
2023/08/13 06:37:34;;;;;;;9.40;5.10;;;;;;;21.86;96.26;98230.02;106618;1274;24218;-77
2023/08/13 06:40:22;;;;;;;8.30;5.30;;;;;;;21.90;94.64;98230.08;106645;1279;22669;-78
2023/08/13 06:42:50;;;;;;;7.70;5.40;;;;;;;21.90;93.41;98228.58;106400;1279;24396;-78
2023/08/13 06:45:19;;;;;;;8.30;4.90;;;;;;;21.92;93.47;98232.15;106644;1279;23399;-78
2023/08/13 06:47:47;;;;;;;9.40;5.70;;;;;;;21.92;90.79;98234.34;106633;1279;22582;-77
2023/08/13 06:50:15;;;;;;;7.10;5.30;;;;;;;21.87;88.85;98234.10;106660;1279;22537;-78
2023/08/13 06:52:43;;;;;;;7.50;5.90;;;;;;;21.85;89.04;98232.64;106413;1279;22539;-77
2023/08/13 06:55:11;;;;;;;6.60;5.40;;;;;;;21.91;90.42;98235.04;106438;1279;22529;-77
2023/08/13 06:57:39;;;;;;;7.90;6.00;;;;;;;21.98;88.30;98233.12;106428;1279;24360;-77
2023/08/13 07:00:09;;;;;;;6.80;5.20;;;;;;;22.01;88.32;98233.41;106429;1279;23590;-78
2023/08/13 07:02:37;;;;;;;7.10;5.70;;;;;;;22.08;88.11;98238.22;106712;1279;22622;-78
2023/08/13 07:05:06;;;;;;;7.10;5.20;;;;;;;22.12;87.96;98237.81;106654;1279;26510;-78
2023/08/13 07:07:34;;;;;;;8.10;5.40;;;;;;;22.20;88.31;98242.36;106696;1279;22530;-77
2023/08/13 07:10:04;;;;;;;9.00;6.40;;;;;;;22.29;87.86;98245.89;106394;1279;23151;-77
2023/08/13 07:12:32;;;;;;;8.50;5.40;;;;;;;22.36;87.54;98249.38;106420;1280;25399;-77
2023/08/13 07:15:03;;;;;;;7.10;5.50;;;;;;;22.43;87.19;98245.34;106367;1262;25095;-78
2023/08/13 07:17:31;;;;;;;7.50;5.80;;;;;;;22.50;86.02;98250.68;106414;1262;24273;-77
2023/08/13 07:19:59;;;;;;;8.20;5.60;;;;;;;22.51;84.70;98251.41;106434;1279;22588;-78
2023/08/13 07:22:27;;;;;;;6.30;5.50;;;;;;;22.55;84.31;98253.42;106688;1279;22571;-78
2023/08/13 07:24:55;;;;;;;7.10;5.90;;;;;;;22.60;84.80;98254.05;106587;1279;24375;-78
2023/08/13 07:27:23;;;;;;;8.30;5.30;;;;;;;22.70;85.08;98253.34;106670;1279;24059;-78
2023/08/13 07:29:51;;;;;;;5.70;4.90;;;;;;;22.77;82.56;98256.34;106444;1279;23943;-78
2023/08/13 07:32:19;;;;;;;9.30;5.50;;;;;;;22.79;81.94;98254.48;106700;1280;25545;-78
2023/08/13 07:34:47;;;;;;;6.60;5.00;;;;;;;22.85;82.93;98253.30;106699;1279;22711;-78
2023/08/13 07:37:15;;;;;;;9.40;5.10;;;;;;;22.96;82.93;98254.36;106730;1279;24381;-77
2023/08/13 07:39:43;;;;;;;7.80;5.40;;;;;;;23.03;82.38;98256.56;106483;1279;25438;-77
2023/08/13 07:42:12;;;;;;;6.70;5.00;;;;;;;23.11;82.19;98259.42;106678;1279;22631;-78
2023/08/13 07:44:40;;;;;;;6.40;5.30;;;;;;;23.14;79.24;98259.14;106672;1279;22741;-78
2023/08/13 07:47:08;;;;;;;12.00;5.20;;;;;;;23.11;79.94;98258.40;106839;1280;22527;-78
2023/08/13 07:49:36;;;;;;;7.00;4.70;;;;;;;23.14;79.74;98254.83;106805;1279;22580;-78
2023/08/13 07:52:04;;;;;;;6.50;4.70;;;;;;;23.17;78.59;98256.66;106421;1279;22593;-78
2023/08/13 07:54:32;;;;;;;9.70;5.20;;;;;;;23.15;78.24;98256.18;106661;1279;23713;-77
2023/08/13 07:57:00;;;;;;;8.10;5.10;;;;;;;23.18;78.61;98256.61;106745;1279;22987;-78
2023/08/13 07:59:28;;;;;;;8.80;5.40;;;;;;;23.22;78.58;98252.11;106696;1280;25380;-77
2023/08/13 08:01:57;;;;;;;7.50;4.80;;;;;;;23.28;78.10;98255.95;106568;1279;22710;-77
2023/08/13 08:04:25;;;;;;;8.30;4.80;;;;;;;23.33;77.98;98254.13;106453;1279;22573;-77
2023/08/13 08:06:54;;;;;;;6.60;4.80;;;;;;;23.40;77.73;98255.06;106434;1279;24247;-77
2023/08/13 08:09:22;;;;;;;5.60;4.70;;;;;;;23.45;76.09;98257.26;106733;1279;22647;-76
2023/08/13 08:11:50;;;;;;;5.90;4.70;;;;;;;23.48;75.58;98259.09;106465;1279;22534;-77
2023/08/13 08:14:18;;;;;;;6.30;5.20;;;;;;;23.54;75.50;98263.95;106352;1279;22644;-77
2023/08/13 08:16:46;;;;;;;5.80;4.70;;;;;;;23.64;74.80;98263.18;106714;1279;24085;-77
2023/08/13 08:19:14;;;;;;;6.20;5.20;;;;;;;23.69;71.10;98263.34;106640;1279;25342;-77
2023/08/13 08:21:42;;;;;;;6.50;4.80;;;;;;;23.65;71.84;98263.03;106674;1279;22595;-77
2023/08/13 08:24:10;;;;;;;8.20;5.00;;;;;;;23.69;72.90;98263.11;106458;1279;24247;-77
2023/08/13 08:26:38;;;;;;;6.10;4.80;;;;;;;23.83;71.61;98260.03;106414;1279;23036;-76
2023/08/13 08:29:06;;;;;;;6.20;4.50;;;;;;;23.96;69.96;98261.80;106430;1279;22538;-78
2023/08/13 08:31:34;;;;;;;6.00;4.40;;;;;;;24.02;70.05;98257.77;106703;1279;22590;-77
2023/08/13 08:34:02;;;;;;;6.10;4.20;;;;;;;24.03;68.89;98261.48;106461;1279;24198;-77
2023/08/13 08:36:30;;;;;;;7.40;4.50;;;;;;;24.02;69.22;98255.83;106406;1279;24220;-77
2023/08/13 08:38:58;;;;;;;6.30;3.60;;;;;;;24.06;66.91;98255.70;106408;1279;22739;-77
2023/08/13 08:41:29;;;;;;;8.30;4.20;;;;;;;24.05;66.14;98257.17;106443;1279;22680;-77
2023/08/13 08:43:58;;;;;;;6.00;4.40;;;;;;;24.08;67.63;98256.80;106449;1279;24190;-78
2023/08/13 08:46:30;;;;;;;5.20;3.80;;;;;;;24.17;68.16;98255.16;106720;1279;24161;-78
2023/08/13 08:49:00;;;;;;;7.60;3.90;;;;;;;24.34;66.87;98251.68;106654;1279;22650;-78
2023/08/13 08:51:28;;;;;;;5.20;3.40;;;;;;;24.49;66.42;98252.70;106695;1279;22558;-77
2023/08/13 08:53:58;;;;;;;6.00;3.30;;;;;;;24.60;64.80;98249.84;106382;1279;22530;-77
2023/08/13 08:56:26;;;;;;;5.30;3.30;;;;;;;24.74;63.92;98249.08;106754;1279;22661;-77
2023/08/13 08:58:54;;;;;;;5.20;3.30;;;;;;;24.76;61.91;98243.81;106388;1279;25287;-78
2023/08/13 09:01:22;;;;;;;5.70;3.70;;;;;;;24.69;60.48;98246.23;106461;1279;22678;-77
2023/08/13 09:03:50;;;;;;;4.80;3.50;;;;;;;24.62;59.69;98243.41;106427;1279;22647;-77
2023/08/13 09:06:18;;;;;;;5.90;3.40;;;;;;;24.59;60.00;98240.24;106383;1279;22532;-77
2023/08/13 09:08:49;;;;;;;6.90;3.40;;;;;;;24.59;61.17;98240.48;106435;1279;22525;-76
2023/08/13 09:11:18;;;;;;;5.70;3.70;;;;;;;24.72;62.08;98235.84;106409;1279;24213;-77
2023/08/13 09:13:50;;;;;;;6.50;3.70;;;;;;;24.85;61.08;98238.67;106529;1279;24384;-77
2023/08/13 09:16:19;;;;;;;4.60;3.70;;;;;;;24.87;60.26;98238.28;106433;1279;22538;-77
2023/08/13 09:18:51;;;;;;;4.90;3.30;;;;;;;24.83;59.68;98240.55;106494;1279;25358;-77
2023/08/13 09:21:35;;;;;;;4.60;3.50;;;;;;;24.71;59.25;98236.14;106419;1279;24577;-77
2023/08/13 09:24:03;;;;;;;8.10;3.80;;;;;;;24.58;59.14;98236.54;106430;1279;25229;-77
2023/08/13 09:26:31;;;;;;;7.40;3.90;;;;;;;24.51;60.42;98236.18;106413;1279;22527;-76
2023/08/13 09:28:59;;;;;;;7.50;4.00;;;;;;;24.60;59.73;98239.05;106412;1279;22535;-76
2023/08/13 09:31:28;;;;;;;6.60;4.60;;;;;;;24.59;59.58;98238.42;106440;1279;25401;-76
2023/08/13 09:33:57;;;;;;;5.90;4.10;;;;;;;24.60;59.96;98238.84;106439;1279;24060;-78
2023/08/13 09:36:25;;;;;;;6.40;4.10;;;;;;;24.67;60.36;98232.58;106739;1279;22681;-78
2023/08/13 09:38:53;;;;;;;6.30;4.20;;;;;;;24.74;60.88;98235.70;106465;1279;24251;-78
2023/08/13 09:41:22;;;;;;;5.70;4.30;;;;;;;24.83;60.92;98234.63;106939;1279;24266;-77
2023/08/13 09:43:53;;;;;;;7.20;4.40;;;;;;;24.90;61.37;98233.35;106599;1279;24269;-77
2023/08/13 09:46:25;;;;;;;8.60;4.30;;;;;;;25.03;61.25;98233.17;106574;1279;25335;-77
2023/08/13 09:48:55;;;;;;;6.20;3.90;;;;;;;25.16;61.25;98230.89;106466;1279;23177;-78
2023/08/13 09:51:30;;;;;;;9.20;4.30;;;;;;;25.28;61.30;98228.97;106784;1279;23532;-78
2023/08/13 09:54:13;;;;;;;6.50;4.00;;;;;;;25.46;61.03;98227.22;106720;1279;25398;-77
2023/08/13 09:56:44;;;;;;;5.20;4.00;;;;;;;25.54;59.20;98235.28;106818;1279;22999;-78
2023/08/13 09:59:13;;;;;;;9.20;3.80;;;;;;;25.57;59.77;98228.97;106682;1279;22544;-78
2023/08/13 10:01:42;;;;;;;7.40;3.50;;;;;;;25.70;60.02;98227.51;106448;1279;22527;-76
2023/08/13 10:04:11;;;;;;;10.00;3.80;;;;;;;25.87;59.43;98224.41;106425;1279;22647;-77
2023/08/13 10:06:39;;;;;;;8.50;4.10;;;;;;;26.00;59.62;98226.17;106423;1279;22577;-77
2023/08/13 10:09:07;;;;;;;6.30;3.70;;;;;;;26.16;59.08;98226.48;106411;1279;22527;-77
2023/08/13 10:11:35;;;;;;;5.60;3.80;;;;;;;26.23;59.00;98229.95;106406;1279;24390;-77
2023/08/13 10:14:03;;;;;;;8.70;4.50;;;;;;;26.26;58.85;98228.30;106443;1279;22812;-77
2023/08/13 10:16:32;;;;;;;6.40;3.50;;;;;;;26.17;58.14;98227.82;106471;1279;22591;-77
2023/08/13 10:19:01;;;;;;;4.20;3.30;;;;;;;26.20;59.72;98222.22;106412;1279;22682;-77
2023/08/13 10:21:33;;;;;;;8.00;3.50;;;;;;;26.47;60.37;98222.77;106416;1279;25513;-77
2023/08/13 10:24:03;;;;;;;5.30;3.70;;;;;;;26.77;59.36;98222.88;106427;1279;22642;-77
2023/08/13 10:26:32;;;;;;;8.50;3.90;;;;;;;26.98;59.03;98223.61;106452;1279;25482;-78
2023/08/13 10:29:15;;;;;;;6.40;4.00;;;;;;;27.13;59.95;98220.95;106725;1279;25298;-78
2023/08/13 10:31:54;;;;;;;7.00;3.70;;;;;;;27.33;57.73;98224.45;106784;1279;22527;-78
2023/08/13 10:34:50;;;;;;;4.80;3.20;;;;;;;27.28;55.92;98221.70;106709;1279;24251;-78
2023/08/13 10:37:19;;;;;;;7.00;3.20;;;;;;;27.21;55.75;98221.10;106722;1279;24059;-77
2023/08/13 10:40:08;;;;;;;6.10;3.30;;;;;;;27.17;55.88;98219.85;106727;1279;24298;-77
2023/08/13 10:42:37;;;;;;;4.80;3.20;;;;;;;27.24;56.41;98217.52;106690;1279;24224;-77
2023/08/13 10:45:07;;;;;;;5.10;3.40;;;;;;;27.37;56.28;98219.67;106427;1279;25310;-78
2023/08/13 10:47:52;;;;;;;8.30;3.20;;;;;;;27.56;56.59;98215.15;106645;1279;22527;-78
2023/08/13 10:50:38;;;;;;;5.80;2.90;;;;;;;27.71;55.24;98215.21;106407;1279;22534;-76
2023/08/13 10:53:27;;;;;;;6.00;3.40;;;;;;;27.79;55.18;98211.55;106363;1279;22524;-77
2023/08/13 10:55:59;;;;;;;5.10;2.60;;;;;;;27.91;54.61;98216.14;106398;1279;22533;-78
2023/08/13 10:58:39;;;;;;;7.00;3.20;;;;;;;28.04;55.27;98213.35;106422;1279;24703;-78
2023/08/13 11:01:13;;;;;;;5.00;3.10;;;;;;;28.24;55.42;98211.59;106687;1279;22541;-77
2023/08/13 11:03:44;;;;;;;4.90;3.00;;;;;;;28.27;53.25;98207.70;106755;1279;23052;-77
2023/08/13 11:06:17;;;;;;;4.20;2.90;;;;;;;28.31;53.71;98210.59;106486;1279;25332;-78
2023/08/13 11:08:46;;;;;;;4.20;2.80;;;;;;;28.40;54.36;98207.27;106740;1279;25493;-78
2023/08/13 11:11:17;;;;;;;4.70;3.10;;;;;;;28.52;54.11;98205.36;106787;1279;24052;-78
2023/08/13 11:13:46;;;;;;;4.60;2.80;;;;;;;28.65;52.79;98210.20;106706;1279;22554;-78
2023/08/13 11:16:15;;;;;;;4.80;3.40;;;;;;;28.72;52.25;98206.88;106756;1279;24235;-77
2023/08/13 11:18:43;;;;;;;6.10;2.90;;;;;;;28.84;52.10;98204.06;106359;1279;24469;-77
2023/08/13 11:21:12;;;;;;;6.40;2.90;;;;;;;29.00;51.41;98199.13;106474;1279;22532;-77
2023/08/13 11:23:40;;;;;;;5.60;2.70;;;;;;;29.10;51.56;98204.27;106415;1279;22658;-78
2023/08/13 11:26:09;;;;;;;7.40;3.50;;;;;;;29.14;49.40;98199.67;106696;1279;22550;-77
2023/08/13 11:28:37;;;;;;;5.10;2.70;;;;;;;29.11;50.62;98197.67;106189;1279;24208;-77
2023/08/13 11:31:05;;;;;;;7.10;2.80;;;;;;;29.21;49.67;98193.58;106421;1279;25288;-78